Terminal Aerodrome Forecast
Issued by NWS Melbourne, FL

Current Version | Previous Version | Text Only | Print | Product List | Glossary On
Versions: 1 2 3 4 5 6 7 8 9 10 11 12 13 14 15 16 17 18 19 20 21 22 23 24 25 26 27 28 29 30
000
FTUS42 KMLB 080019 RRA
TAFMCO
TAF
KMCO 080019Z 0800/0824 17004KT P6SM SCT030 BKN050 BKN100
     FM080200 14003KT P6SM SCT050 SCT100 BKN250
     FM081400 15007KT P6SM SCT030 SCT250
     FM081800 14008KT P6SM VCTS SCT040CB=

USA.gov is the U.S. government's official web portal to all federal, state and local government web resources and services.